createdAt,value
2018-10-18T00:00:50.712Z,0.00
2018-10-18T00:01:50.706Z,0.00
2018-10-18T00:02:50.698Z,0.00
2018-10-18T00:03:50.678Z,0.00
2018-10-18T00:04:50.672Z,0.00
2018-10-18T00:05:50.661Z,0.00
2018-10-18T00:06:50.650Z,0.00
2018-10-18T00:07:50.631Z,0.00
2018-10-18T00:08:50.621Z,0.00
2018-10-18T00:09:50.611Z,0.00
2018-10-18T00:10:50.597Z,0.00
2018-10-18T00:11:50.589Z,0.00
2018-10-18T00:12:50.575Z,0.00
2018-10-18T00:13:50.563Z,0.00
2018-10-18T00:14:50.556Z,0.00
2018-10-18T00:15:50.544Z,0.00
2018-10-18T00:16:50.530Z,0.00
2018-10-18T00:17:50.522Z,0.00
2018-10-18T00:18:50.505Z,0.00
2018-10-18T00:19:50.493Z,0.00
2018-10-18T00:20:50.483Z,0.00
2018-10-18T00:21:50.473Z,0.00
2018-10-18T00:22:50.458Z,0.00
2018-10-18T00:23:50.452Z,0.00
2018-10-18T00:24:50.440Z,0.00
2018-10-18T00:25:50.424Z,0.00
2018-10-18T00:26:50.408Z,0.00
2018-10-18T00:27:50.402Z,0.00
2018-10-18T00:28:50.394Z,0.00
2018-10-18T00:29:50.380Z,0.00
2018-10-18T00:30:50.367Z,0.00
2018-10-18T00:31:50.355Z,0.00
2018-10-18T00:32:50.345Z,0.00
2018-10-18T00:33:50.331Z,0.00
2018-10-18T00:34:50.317Z,0.00
2018-10-18T00:35:50.311Z,0.00
2018-10-18T00:36:50.289Z,0.00
2018-10-18T00:37:50.282Z,0.00
2018-10-18T00:38:50.273Z,0.00
2018-10-18T00:39:50.260Z,0.00
2018-10-18T00:40:50.244Z,0.00
2018-10-18T00:41:50.234Z,0.00
2018-10-18T00:42:50.222Z,0.00
2018-10-18T00:43:50.212Z,0.00
2018-10-18T00:44:50.198Z,0.00
2018-10-18T00:45:50.192Z,0.00
2018-10-18T00:46:50.176Z,0.00
2018-10-18T00:47:50.169Z,0.00
2018-10-18T00:48:50.150Z,0.00
2018-10-18T00:49:50.143Z,0.00
2018-10-18T00:50:50.125Z,0.00
2018-10-18T00:51:50.112Z,0.00
2018-10-18T00:52:50.106Z,0.00
2018-10-18T00:53:50.094Z,0.00
2018-10-18T00:54:50.079Z,0.00
2018-10-18T00:55:50.061Z,0.00
2018-10-18T00:56:50.057Z,0.00
2018-10-18T00:57:50.040Z,0.00
2018-10-18T00:58:50.029Z,0.00
2018-10-18T00:59:50.019Z,0.00
2018-10-18T01:00:50.009Z,0.00
2018-10-18T01:01:49.997Z,0.00
2018-10-18T01:02:49.994Z,0.00
2018-10-18T01:03:49.974Z,0.00
2018-10-18T01:04:49.965Z,0.00
2018-10-18T01:05:49.944Z,0.00
2018-10-18T01:06:49.940Z,0.00
2018-10-18T01:07:49.927Z,0.00
2018-10-18T01:08:49.914Z,0.00
2018-10-18T01:09:49.905Z,0.00
2018-10-18T01:10:49.887Z,0.00
2018-10-18T01:11:49.886Z,0.00
2018-10-18T01:12:49.867Z,0.00
2018-10-18T01:13:49.851Z,0.00
2018-10-18T01:14:49.835Z,0.00
2018-10-18T01:15:49.831Z,0.00
2018-10-18T01:16:49.815Z,0.00
2018-10-18T01:17:49.799Z,0.00
2018-10-18T01:18:49.795Z,0.00
2018-10-18T01:19:49.782Z,0.00
2018-10-18T01:20:49.773Z,0.00
2018-10-18T01:21:49.760Z,0.00
2018-10-18T01:22:49.749Z,0.00
2018-10-18T01:23:49.733Z,0.00
2018-10-18T01:24:49.723Z,0.00
2018-10-18T01:25:49.708Z,0.00
2018-10-18T01:26:49.702Z,0.00
2018-10-18T01:27:49.687Z,0.00
2018-10-18T01:28:49.680Z,0.00
2018-10-18T01:29:49.661Z,0.00
2018-10-18T01:30:49.664Z,0.00
2018-10-18T01:31:49.640Z,0.00
2018-10-18T01:32:49.636Z,0.00
2018-10-18T01:33:49.618Z,0.00
2018-10-18T01:34:49.613Z,0.00
2018-10-18T01:35:49.589Z,0.00
2018-10-18T01:36:49.577Z,0.00
2018-10-18T01:37:49.564Z,0.00
2018-10-18T01:38:49.552Z,0.00
2018-10-18T01:39:49.545Z,0.00
2018-10-18T01:40:49.529Z,0.00
2018-10-18T01:41:49.519Z,0.00
2018-10-18T01:42:49.506Z,0.00
2018-10-18T01:43:49.494Z,0.00
2018-10-18T01:44:49.489Z,0.00
2018-10-18T01:45:49.480Z,0.00
2018-10-18T01:46:49.458Z,0.00
2018-10-18T01:47:49.450Z,0.00
2018-10-18T01:48:49.442Z,0.00
2018-10-18T01:49:49.424Z,0.00
2018-10-18T01:50:49.415Z,0.00
2018-10-18T01:51:49.405Z,0.00
2018-10-18T01:52:49.389Z,0.00
2018-10-18T01:53:49.379Z,0.00
2018-10-18T01:54:49.366Z,0.00
2018-10-18T01:55:49.352Z,0.00
2018-10-18T01:56:49.344Z,0.00
2018-10-18T01:57:49.325Z,0.00
2018-10-18T01:58:49.317Z,0.00
2018-10-18T01:59:49.301Z,0.00
2018-10-18T02:00:49.295Z,0.00
2018-10-18T02:01:49.281Z,0.00
2018-10-18T02:02:49.273Z,0.00
2018-10-18T02:03:49.257Z,0.00
2018-10-18T02:04:49.247Z,0.00
2018-10-18T02:05:49.233Z,0.00
2018-10-18T02:06:49.220Z,0.00
2018-10-18T02:07:49.216Z,0.00
2018-10-18T02:08:49.197Z,0.00
2018-10-18T02:09:49.186Z,0.00
2018-10-18T02:10:49.175Z,0.00
2018-10-18T02:11:49.162Z,0.00
2018-10-18T02:12:49.146Z,0.00
2018-10-18T02:13:49.147Z,0.00
2018-10-18T02:14:49.123Z,0.00
2018-10-18T02:15:49.111Z,0.00
2018-10-18T02:16:49.098Z,0.00
2018-10-18T02:17:49.087Z,0.00
2018-10-18T02:18:49.079Z,0.00
2018-10-18T02:19:49.066Z,0.00
2018-10-18T02:20:49.056Z,0.00
2018-10-18T02:21:49.044Z,0.00
2018-10-18T02:22:49.026Z,0.00
2018-10-18T02:23:49.018Z,0.00
2018-10-18T02:24:49.010Z,0.00
2018-10-18T02:25:48.995Z,0.00
2018-10-18T02:26:48.993Z,0.00
2018-10-18T02:27:48.974Z,0.00
2018-10-18T02:28:48.989Z,0.00
2018-10-18T02:29:48.943Z,0.00
2018-10-18T02:30:48.939Z,0.00
2018-10-18T02:31:48.926Z,0.00
2018-10-18T02:32:48.912Z,0.00
2018-10-18T02:33:48.896Z,0.00
2018-10-18T02:34:48.890Z,0.00
2018-10-18T02:35:48.880Z,0.00
2018-10-18T02:36:48.862Z,0.00
2018-10-18T02:37:48.852Z,0.00
2018-10-18T02:38:48.839Z,0.00
2018-10-18T02:39:48.827Z,0.00
2018-10-18T02:40:48.816Z,0.00
2018-10-18T02:41:48.803Z,0.00
2018-10-18T02:42:48.783Z,0.00
2018-10-18T02:43:48.778Z,0.00
2018-10-18T02:44:48.775Z,0.00
2018-10-18T02:45:48.753Z,0.00
2018-10-18T02:46:48.749Z,0.00
2018-10-18T02:47:48.736Z,0.00
2018-10-18T02:48:48.716Z,0.00
2018-10-18T02:49:48.708Z,0.00
2018-10-18T02:50:48.698Z,0.00
2018-10-18T02:51:48.686Z,0.00
2018-10-18T02:52:48.672Z,0.00
2018-10-18T02:53:48.656Z,0.00
2018-10-18T02:54:48.643Z,0.00
2018-10-18T02:55:48.637Z,0.00
2018-10-18T02:56:48.621Z,0.00
2018-10-18T02:57:48.613Z,0.00
2018-10-18T02:58:48.604Z,0.00
2018-10-18T02:59:48.594Z,0.00
2018-10-18T03:00:48.576Z,0.00
2018-10-18T03:01:48.589Z,0.00
2018-10-18T03:02:48.551Z,0.00
2018-10-18T03:03:48.537Z,0.00
2018-10-18T03:04:48.524Z,0.00
2018-10-18T03:05:48.518Z,0.00
2018-10-18T03:06:48.507Z,0.00
2018-10-18T03:07:48.496Z,0.00
2018-10-18T03:08:48.483Z,0.00
2018-10-18T03:09:48.469Z,0.00
2018-10-18T03:10:48.454Z,0.00
2018-10-18T03:11:48.450Z,0.00
2018-10-18T03:12:48.445Z,0.00
2018-10-18T03:13:48.424Z,0.00
2018-10-18T03:14:48.417Z,0.00
2018-10-18T03:15:48.431Z,0.00
2018-10-18T03:16:48.393Z,0.00
2018-10-18T03:17:48.374Z,0.00
2018-10-18T03:18:48.360Z,0.00
2018-10-18T03:19:48.354Z,0.00
2018-10-18T03:20:48.337Z,0.00
2018-10-18T03:21:48.328Z,0.00
2018-10-18T03:22:48.317Z,0.00
2018-10-18T03:23:48.305Z,0.00
2018-10-18T03:24:48.297Z,0.00
2018-10-18T03:25:48.281Z,0.00
2018-10-18T03:26:48.266Z,0.00
2018-10-18T03:27:48.262Z,0.00
2018-10-18T03:28:48.244Z,0.00
2018-10-18T03:29:48.228Z,0.00
2018-10-18T03:30:48.221Z,0.00
2018-10-18T03:31:48.207Z,0.00
2018-10-18T03:32:48.197Z,0.00
2018-10-18T03:33:48.186Z,0.00
2018-10-18T03:34:48.170Z,0.00
2018-10-18T03:35:48.158Z,0.00
2018-10-18T03:36:48.152Z,0.00
2018-10-18T03:37:48.141Z,0.00
2018-10-18T03:38:48.130Z,0.00
2018-10-18T03:39:48.112Z,0.00
2018-10-18T03:40:48.097Z,0.00
2018-10-18T03:41:48.088Z,0.00
2018-10-18T03:42:48.074Z,0.00
2018-10-18T03:43:48.062Z,0.00
2018-10-18T03:44:48.052Z,0.00
2018-10-18T03:45:48.039Z,0.00
2018-10-18T03:46:48.028Z,0.00
2018-10-18T03:47:48.013Z,0.00
2018-10-18T03:48:48.005Z,0.00
2018-10-18T03:49:47.987Z,0.00
2018-10-18T03:50:47.980Z,0.00
2018-10-18T03:51:47.966Z,0.00
2018-10-18T03:52:47.956Z,0.00
2018-10-18T03:53:47.945Z,0.00
2018-10-18T03:54:47.932Z,0.00
2018-10-18T03:55:47.919Z,0.00
2018-10-18T03:56:47.912Z,0.00
2018-10-18T03:57:47.897Z,0.00
2018-10-18T03:58:47.881Z,0.00
2018-10-18T03:59:48.007Z,0.00
2018-10-18T04:00:47.862Z,0.00
2018-10-18T04:01:47.872Z,0.00
2018-10-18T04:02:47.833Z,0.00
2018-10-18T04:03:47.826Z,0.00
2018-10-18T04:04:47.812Z,0.00
2018-10-18T04:05:47.797Z,0.00
2018-10-18T04:06:47.789Z,0.00
2018-10-18T04:07:47.776Z,0.00
2018-10-18T04:08:47.764Z,0.00
2018-10-18T04:09:47.752Z,0.00
2018-10-18T04:10:47.743Z,0.00
2018-10-18T04:11:47.730Z,0.00
2018-10-18T04:12:47.793Z,0.00
2018-10-18T04:13:47.707Z,0.00
2018-10-18T04:14:47.700Z,0.00
2018-10-18T04:15:47.677Z,0.00
2018-10-18T04:16:47.667Z,0.00
2018-10-18T04:17:47.670Z,0.00
2018-10-18T04:18:47.642Z,0.00
2018-10-18T04:19:47.631Z,0.00
2018-10-18T04:20:47.621Z,0.00
2018-10-18T04:21:47.605Z,0.00
2018-10-18T04:22:47.601Z,0.00
2018-10-18T04:23:47.590Z,0.00
2018-10-18T04:24:47.574Z,0.00
2018-10-18T04:25:47.557Z,0.00
2018-10-18T04:26:47.546Z,0.00
2018-10-18T04:27:47.535Z,0.00
2018-10-18T04:28:47.529Z,0.00
2018-10-18T04:29:47.514Z,0.00
2018-10-18T04:30:47.499Z,0.00
2018-10-18T04:31:47.489Z,0.00
2018-10-18T04:32:47.473Z,0.00
2018-10-18T04:33:47.459Z,0.00
2018-10-18T04:34:47.468Z,0.00
2018-10-18T04:35:47.464Z,0.00
2018-10-18T04:36:47.432Z,0.00
2018-10-18T04:37:47.416Z,0.00
2018-10-18T04:38:47.405Z,0.00
2018-10-18T04:39:47.394Z,0.00
2018-10-18T04:40:47.381Z,0.00
2018-10-18T04:41:47.369Z,0.00
2018-10-18T04:42:47.357Z,0.00
2018-10-18T04:43:47.347Z,0.00
2018-10-18T04:44:47.331Z,0.00
2018-10-18T04:45:47.320Z,0.00
2018-10-18T04:46:47.310Z,0.00
2018-10-18T04:47:47.445Z,0.00
2018-10-18T04:48:47.344Z,0.00
2018-10-18T04:49:47.272Z,0.00
2018-10-18T04:50:47.259Z,0.00
2018-10-18T04:51:47.251Z,0.00
2018-10-18T04:52:47.240Z,0.00
2018-10-18T04:53:47.231Z,0.00
2018-10-18T04:54:47.211Z,0.00
2018-10-18T04:55:47.201Z,0.00
2018-10-18T04:56:47.266Z,0.00
2018-10-18T04:57:47.178Z,0.00
2018-10-18T04:58:47.165Z,0.00
2018-10-18T04:59:47.157Z,0.00
2018-10-18T05:00:47.139Z,0.00
2018-10-18T05:01:47.129Z,0.00
2018-10-18T05:02:47.139Z,0.00
2018-10-18T05:03:47.105Z,0.00
2018-10-18T05:04:47.109Z,0.00
2018-10-18T05:05:47.082Z,0.00
2018-10-18T05:06:47.111Z,0.00
2018-10-18T05:07:47.057Z,0.00
2018-10-18T05:08:47.046Z,0.00
2018-10-18T05:09:47.033Z,0.00
2018-10-18T05:10:47.024Z,0.00
2018-10-18T05:11:47.013Z,0.00
2018-10-18T05:12:47.080Z,0.00
2018-10-18T05:13:46.984Z,0.00
2018-10-18T05:14:46.978Z,0.00
2018-10-18T05:15:46.964Z,0.00
2018-10-18T05:16:46.956Z,0.00
2018-10-18T05:17:46.942Z,0.00
2018-10-18T05:18:46.933Z,0.00
2018-10-18T05:19:46.913Z,0.00
2018-10-18T05:20:46.903Z,0.00
2018-10-18T05:21:46.889Z,0.00
2018-10-18T05:22:46.877Z,0.00
2018-10-18T05:23:46.886Z,0.00
2018-10-18T05:24:46.861Z,0.00
2018-10-18T05:25:46.844Z,0.00
2018-10-18T05:26:46.834Z,4.00
2018-10-18T05:27:46.816Z,0.00
2018-10-18T05:28:46.808Z,0.00
2018-10-18T05:29:46.795Z,0.00
2018-10-18T05:30:46.784Z,4.00
2018-10-18T05:31:46.831Z,0.00
2018-10-18T05:32:46.764Z,0.00
2018-10-18T05:33:46.749Z,4.00
2018-10-18T05:34:46.743Z,4.00
2018-10-18T05:35:46.720Z,4.00
2018-10-18T05:36:46.719Z,4.00
2018-10-18T05:37:46.783Z,4.00
2018-10-18T05:38:46.695Z,4.00
2018-10-18T05:39:46.676Z,4.00
2018-10-18T05:40:46.663Z,4.00
2018-10-18T05:41:46.656Z,8.00
2018-10-18T05:42:46.637Z,8.00
2018-10-18T05:43:46.625Z,8.00
2018-10-18T05:44:46.611Z,12.00
2018-10-18T05:45:46.601Z,12.00
2018-10-18T05:46:46.756Z,12.00
2018-10-18T05:47:46.622Z,12.00
2018-10-18T05:48:46.564Z,12.00
2018-10-18T05:49:46.555Z,16.00
2018-10-18T05:50:46.544Z,16.00
2018-10-18T05:51:46.530Z,16.00
2018-10-18T05:52:46.524Z,16.00
2018-10-18T05:53:46.658Z,20.00
2018-10-18T05:54:46.498Z,20.00
2018-10-18T05:55:46.486Z,24.00
2018-10-18T05:56:46.475Z,24.00
2018-10-18T05:57:46.458Z,28.00
2018-10-18T05:58:46.449Z,28.00
2018-10-18T05:59:46.431Z,28.00
2018-10-18T06:00:46.421Z,32.00
2018-10-18T06:01:46.407Z,32.00
2018-10-18T06:02:46.395Z,32.00
2018-10-18T06:03:46.384Z,36.00
2018-10-18T06:04:46.373Z,36.00
2018-10-18T06:05:46.361Z,36.00
2018-10-18T06:06:46.353Z,36.00
2018-10-18T06:07:46.338Z,40.00
2018-10-18T06:08:46.322Z,44.00
2018-10-18T06:09:46.331Z,48.00
2018-10-18T06:10:46.297Z,44.00
2018-10-18T06:11:46.293Z,48.00
2018-10-18T06:12:46.279Z,52.00
2018-10-18T06:13:46.265Z,56.00
2018-10-18T06:14:46.252Z,56.00
2018-10-18T06:15:46.242Z,60.00
2018-10-18T06:16:46.226Z,60.00
2018-10-18T06:17:46.213Z,60.00
2018-10-18T06:18:46.203Z,64.00
2018-10-18T06:19:46.191Z,68.00
2018-10-18T06:20:46.178Z,72.00
2018-10-18T06:21:46.163Z,72.00
2018-10-18T06:22:46.240Z,76.00
2018-10-18T06:23:46.141Z,80.00
2018-10-18T06:24:46.131Z,84.00
2018-10-18T06:25:46.119Z,88.00
2018-10-18T06:26:46.106Z,88.00
2018-10-18T06:27:46.093Z,96.00
2018-10-18T06:28:46.084Z,96.00
2018-10-18T06:29:46.071Z,100.00
2018-10-18T06:30:46.066Z,104.00
2018-10-18T06:31:46.064Z,108.00
2018-10-18T06:32:46.038Z,116.00
2018-10-18T06:33:46.018Z,120.00
2018-10-18T06:34:46.007Z,124.00
2018-10-18T06:35:46.000Z,124.00
2018-10-18T06:36:45.990Z,132.00
2018-10-18T06:37:45.979Z,132.00
2018-10-18T06:38:45.964Z,136.00
2018-10-18T06:39:45.949Z,140.00
2018-10-18T06:40:45.938Z,144.00
2018-10-18T06:41:45.924Z,144.00
2018-10-18T06:42:45.912Z,148.00
2018-10-18T06:43:45.900Z,156.00
2018-10-18T06:44:45.886Z,156.00
2018-10-18T06:45:45.879Z,156.00
2018-10-18T06:46:45.896Z,160.00
2018-10-18T06:47:45.973Z,160.00
2018-10-18T06:48:45.843Z,164.00
2018-10-18T06:49:45.825Z,168.00
2018-10-18T06:50:45.815Z,168.00
2018-10-18T06:51:45.801Z,176.00
2018-10-18T06:52:45.793Z,180.00
2018-10-18T06:53:45.776Z,184.00
2018-10-18T06:54:45.765Z,184.00
2018-10-18T06:55:45.756Z,188.00
2018-10-18T06:56:45.742Z,188.00
2018-10-18T06:57:45.740Z,192.00
2018-10-18T06:58:45.718Z,192.00
2018-10-18T06:59:45.739Z,200.00
2018-10-18T07:00:45.696Z,204.00
2018-10-18T07:01:45.683Z,204.00
2018-10-18T07:02:45.677Z,208.00
2018-10-18T07:03:45.661Z,212.00
2018-10-18T07:04:45.648Z,216.00
2018-10-18T07:05:45.637Z,220.00
2018-10-18T07:06:45.627Z,224.00
2018-10-18T07:07:45.611Z,224.00
2018-10-18T07:08:45.611Z,228.00
2018-10-18T07:09:45.582Z,232.00
2018-10-18T07:10:45.582Z,236.00
2018-10-18T07:11:45.566Z,236.00
2018-10-18T07:12:45.552Z,244.00
2018-10-18T07:13:45.541Z,260.00
2018-10-18T07:14:45.520Z,284.00
2018-10-18T07:15:45.517Z,280.00
2018-10-18T07:16:45.506Z,296.00
2018-10-18T07:17:45.548Z,296.00
2018-10-18T07:18:45.483Z,296.00
2018-10-18T07:19:45.469Z,272.00
2018-10-18T07:20:45.459Z,292.00
2018-10-18T07:21:45.449Z,316.00
2018-10-18T07:22:45.429Z,304.00
2018-10-18T07:23:45.428Z,312.00
2018-10-18T07:24:45.413Z,296.00
2018-10-18T07:25:45.398Z,292.00
2018-10-18T07:26:45.388Z,300.00
2018-10-18T07:27:45.372Z,356.00
2018-10-18T07:28:45.363Z,348.00
2018-10-18T07:29:45.360Z,372.00
2018-10-18T07:30:45.344Z,372.00
2018-10-18T07:31:45.330Z,384.00
2018-10-18T07:32:45.320Z,384.00
2018-10-18T07:33:45.307Z,388.00
2018-10-18T07:34:45.314Z,384.00
2018-10-18T07:35:45.287Z,392.00
2018-10-18T07:36:45.274Z,368.00
2018-10-18T07:37:45.261Z,380.00
2018-10-18T07:38:45.245Z,408.00
2018-10-18T07:39:45.237Z,436.00
2018-10-18T07:40:45.225Z,444.00
2018-10-18T07:41:45.214Z,436.00
2018-10-18T07:42:45.206Z,476.00
2018-10-18T07:43:45.190Z,484.00
2018-10-18T07:44:45.178Z,484.00
2018-10-18T07:45:45.167Z,484.00
2018-10-18T07:46:45.171Z,504.00
2018-10-18T07:47:45.142Z,552.00
2018-10-18T07:48:45.130Z,576.00
2018-10-18T07:49:45.135Z,580.00
2018-10-18T07:50:45.108Z,616.00
2018-10-18T07:51:45.098Z,608.00
2018-10-18T07:52:45.087Z,588.00
2018-10-18T07:53:45.124Z,564.00
2018-10-18T07:54:45.070Z,520.00
2018-10-18T07:55:45.058Z,508.00
2018-10-18T07:56:45.046Z,492.00
2018-10-18T07:57:45.037Z,496.00
2018-10-18T07:58:45.024Z,492.00
2018-10-18T07:59:45.041Z,488.00
2018-10-18T08:00:45.153Z,480.00
2018-10-18T08:01:44.987Z,468.00
2018-10-18T08:02:44.969Z,476.00
2018-10-18T08:03:44.972Z,484.00
2018-10-18T08:04:44.953Z,516.00
2018-10-18T08:05:44.950Z,540.00
2018-10-18T08:06:44.932Z,560.00
2018-10-18T08:07:44.921Z,536.00
2018-10-18T08:08:44.912Z,568.00
2018-10-18T08:09:44.904Z,588.00
2018-10-18T08:10:44.898Z,592.00
2018-10-18T08:11:44.876Z,600.00
2018-10-18T08:12:44.868Z,604.00
2018-10-18T08:13:44.857Z,572.00
2018-10-18T08:14:44.843Z,560.00
2018-10-18T08:15:44.837Z,596.00
2018-10-18T08:16:44.880Z,600.00
2018-10-18T08:17:44.820Z,620.00
2018-10-18T08:18:44.802Z,676.00
2018-10-18T08:19:44.792Z,776.00
2018-10-18T08:20:44.780Z,768.00
2018-10-18T08:21:44.771Z,800.00
2018-10-18T08:22:44.864Z,772.00
2018-10-18T08:23:44.749Z,796.00
2018-10-18T08:24:44.735Z,764.00
2018-10-18T08:25:44.734Z,756.00
2018-10-18T08:26:44.713Z,728.00
2018-10-18T08:27:44.706Z,780.00
2018-10-18T08:28:44.694Z,772.00
2018-10-18T08:29:44.683Z,856.00
2018-10-18T08:30:44.674Z,908.00
2018-10-18T08:31:44.802Z,952.00
2018-10-18T08:32:44.654Z,848.00
2018-10-18T08:33:44.644Z,800.00
2018-10-18T08:34:44.630Z,816.00
2018-10-18T08:35:44.622Z,820.00
2018-10-18T08:36:44.608Z,788.00
2018-10-18T08:37:44.721Z,848.00
2018-10-18T08:38:44.588Z,896.00
2018-10-18T08:39:44.572Z,840.00
2018-10-18T08:40:44.563Z,872.00
2018-10-18T08:41:44.557Z,784.00
2018-10-18T08:42:44.545Z,784.00
2018-10-18T08:43:44.564Z,736.00
2018-10-18T08:44:44.530Z,860.00
2018-10-18T08:45:44.510Z,900.00
2018-10-18T08:46:44.502Z,900.00
2018-10-18T08:47:44.496Z,908.00
2018-10-18T08:48:44.481Z,928.00
2018-10-18T08:49:44.488Z,1000.00
2018-10-18T08:50:44.461Z,1060.00
2018-10-18T08:51:44.447Z,1028.00
2018-10-18T08:52:44.431Z,944.00
2018-10-18T08:53:44.430Z,1076.00
2018-10-18T08:54:44.416Z,1076.00
2018-10-18T08:55:44.410Z,1124.00
2018-10-18T08:56:44.396Z,1196.00
2018-10-18T08:57:44.397Z,1140.00
2018-10-18T08:58:44.374Z,1200.00
2018-10-18T08:59:44.368Z,1208.00
2018-10-18T09:00:44.377Z,1268.00
2018-10-18T09:01:44.341Z,1296.00
2018-10-18T09:02:44.335Z,1276.00
2018-10-18T09:03:44.329Z,1328.00
2018-10-18T09:04:44.311Z,1312.00
2018-10-18T09:05:44.303Z,1320.00
2018-10-18T09:06:44.291Z,1280.00
2018-10-18T09:07:44.282Z,1336.00
2018-10-18T09:08:44.273Z,1332.00
2018-10-18T09:09:44.262Z,1352.00
2018-10-18T09:10:44.253Z,1412.00
2018-10-18T09:11:44.239Z,1400.00
2018-10-18T09:12:44.226Z,1412.00
2018-10-18T09:13:44.219Z,1452.00
2018-10-18T09:14:44.207Z,1472.00
2018-10-18T09:15:44.206Z,1448.00
2018-10-18T09:16:44.189Z,1396.00
2018-10-18T09:17:44.178Z,1356.00
2018-10-18T09:18:44.175Z,1308.00
2018-10-18T09:19:44.161Z,1228.00
2018-10-18T09:20:44.149Z,1208.00
2018-10-18T09:21:44.140Z,1240.00
2018-10-18T09:22:44.129Z,1240.00
2018-10-18T09:23:44.165Z,1244.00
2018-10-18T09:24:44.116Z,1344.00
2018-10-18T09:25:44.099Z,1356.00
2018-10-18T09:26:44.088Z,1396.00
2018-10-18T09:27:44.074Z,1460.00
2018-10-18T09:28:44.072Z,1488.00
2018-10-18T09:29:44.055Z,1580.00
2018-10-18T09:30:44.046Z,1596.00
2018-10-18T09:31:44.043Z,1536.00
2018-10-18T09:32:44.029Z,1600.00
2018-10-18T09:33:44.015Z,1588.00
2018-10-18T09:34:44.006Z,1580.00
2018-10-18T09:35:43.999Z,1568.00
2018-10-18T09:36:43.986Z,1536.00
2018-10-18T09:37:43.986Z,1524.00
2018-10-18T09:38:43.968Z,1588.00
2018-10-18T09:39:43.961Z,1540.00
2018-10-18T09:40:43.953Z,1548.00
2018-10-18T09:41:43.939Z,1536.00
2018-10-18T09:42:43.929Z,1552.00
2018-10-18T09:43:43.920Z,1596.00
2018-10-18T09:44:43.948Z,1396.00
2018-10-18T09:45:43.899Z,1372.00
2018-10-18T09:46:43.887Z,1300.00
2018-10-18T09:47:43.882Z,1300.00
2018-10-18T09:48:43.868Z,1448.00
2018-10-18T09:49:43.861Z,1396.00
2018-10-18T09:50:43.849Z,1552.00
2018-10-18T09:51:43.843Z,1552.00
2018-10-18T09:52:43.829Z,1700.00
2018-10-18T09:53:43.815Z,1760.00
2018-10-18T09:54:43.812Z,1816.00
2018-10-18T09:55:43.930Z,1804.00
2018-10-18T09:56:43.795Z,1840.00
2018-10-18T09:57:43.783Z,1744.00
2018-10-18T09:58:43.775Z,1812.00
2018-10-18T09:59:43.803Z,1596.00
2018-10-18T10:00:43.758Z,1600.00
2018-10-18T10:01:43.747Z,1596.00
2018-10-18T10:02:43.740Z,1516.00
2018-10-18T10:03:43.727Z,1472.00
2018-10-18T10:04:43.720Z,1372.00
2018-10-18T10:05:43.710Z,1448.00
2018-10-18T10:06:43.698Z,1440.00
2018-10-18T10:07:43.694Z,1528.00
2018-10-18T10:08:43.680Z,1472.00
2018-10-18T10:09:43.670Z,1420.00
2018-10-18T10:10:43.660Z,1380.00
2018-10-18T10:11:43.659Z,1360.00
2018-10-18T10:12:43.640Z,1368.00
2018-10-18T10:13:43.747Z,1352.00
2018-10-18T10:14:43.624Z,1436.00
2018-10-18T10:15:43.619Z,1428.00
2018-10-18T10:16:43.605Z,1400.00
2018-10-18T10:17:43.682Z,1400.00
2018-10-18T10:18:43.593Z,1372.00
2018-10-18T10:19:43.575Z,1364.00
2018-10-18T10:20:43.569Z,1448.00
2018-10-18T10:21:43.558Z,1568.00
2018-10-18T10:22:43.557Z,1468.00
2018-10-18T10:23:43.547Z,1476.00
2018-10-18T10:24:43.627Z,1464.00
2018-10-18T10:25:43.528Z,1440.00
2018-10-18T10:26:43.511Z,1456.00
2018-10-18T10:27:43.503Z,1300.00
2018-10-18T10:28:43.497Z,1272.00
2018-10-18T10:29:43.493Z,1352.00
2018-10-18T10:30:43.475Z,1376.00
2018-10-18T10:31:43.469Z,1348.00
2018-10-18T10:32:43.507Z,1424.00
2018-10-18T10:33:43.451Z,1476.00
2018-10-18T10:34:43.442Z,1392.00
2018-10-18T10:35:43.551Z,1488.00
2018-10-18T10:36:43.422Z,1648.00
2018-10-18T10:37:43.415Z,1688.00
2018-10-18T10:38:43.405Z,1716.00
2018-10-18T10:39:43.397Z,1732.00
2018-10-18T10:40:43.388Z,1668.00
2018-10-18T10:41:43.384Z,1656.00
2018-10-18T10:42:43.426Z,1612.00
2018-10-18T10:43:43.369Z,1624.00
2018-10-18T10:44:43.378Z,1752.00
2018-10-18T10:45:43.450Z,1692.00
2018-10-18T10:46:43.334Z,1712.00
2018-10-18T10:47:43.324Z,1696.00
2018-10-18T10:48:43.323Z,1720.00
2018-10-18T10:49:43.309Z,1640.00
2018-10-18T10:50:43.301Z,1692.00
2018-10-18T10:51:43.291Z,1772.00
2018-10-18T10:52:43.282Z,1816.00
2018-10-18T10:53:43.276Z,1832.00
2018-10-18T10:54:43.268Z,1692.00
2018-10-18T10:55:43.257Z,1580.00
2018-10-18T10:56:43.254Z,1552.00
2018-10-18T10:57:43.243Z,1488.00
2018-10-18T10:58:43.240Z,1540.00
2018-10-18T10:59:43.224Z,1544.00
2018-10-18T11:00:43.216Z,1512.00
2018-10-18T11:01:43.207Z,1536.00
2018-10-18T11:02:43.197Z,1640.00
2018-10-18T11:03:43.196Z,1640.00
2018-10-18T11:04:43.181Z,1744.00
2018-10-18T11:05:43.173Z,1800.00
2018-10-18T11:06:43.169Z,1676.00
2018-10-18T11:07:43.153Z,1760.00
2018-10-18T11:08:43.151Z,1736.00
2018-10-18T11:09:43.245Z,1716.00
2018-10-18T11:10:43.130Z,1780.00
2018-10-18T11:11:43.167Z,1860.00
2018-10-18T11:12:43.114Z,1808.00
2018-10-18T11:13:43.102Z,1868.00
2018-10-18T11:14:43.096Z,1616.00
2018-10-18T11:15:43.084Z,1736.00
2018-10-18T11:16:43.078Z,1620.00
2018-10-18T11:17:43.073Z,1576.00
2018-10-18T11:18:43.067Z,1512.00
2018-10-18T11:19:43.056Z,1600.00
2018-10-18T11:20:43.050Z,1700.00
2018-10-18T11:21:43.107Z,1804.00
2018-10-18T11:22:43.031Z,1820.00
2018-10-18T11:23:43.017Z,1716.00
2018-10-18T11:24:43.077Z,1708.00
2018-10-18T11:25:43.008Z,1784.00
2018-10-18T11:26:42.998Z,1896.00
2018-10-18T11:27:42.988Z,1816.00
2018-10-18T11:28:42.989Z,1640.00
2018-10-18T11:29:42.974Z,1568.00
2018-10-18T11:30:42.967Z,1704.00
2018-10-18T11:31:42.955Z,1580.00
2018-10-18T11:32:42.955Z,1584.00
2018-10-18T11:33:42.947Z,1636.00
2018-10-18T11:34:42.932Z,1680.00
2018-10-18T11:35:42.924Z,1736.00
2018-10-18T11:36:42.918Z,1732.00
2018-10-18T11:37:42.906Z,1684.00
2018-10-18T11:38:42.903Z,1612.00
2018-10-18T11:39:42.903Z,1584.00
2018-10-18T11:40:42.891Z,1672.00
2018-10-18T11:41:42.875Z,1736.00
2018-10-18T11:42:42.893Z,1760.00
2018-10-18T11:43:42.861Z,1556.00
2018-10-18T11:44:42.851Z,1648.00
2018-10-18T11:45:42.843Z,1760.00
2018-10-18T11:46:42.839Z,1760.00
2018-10-18T11:47:42.829Z,1704.00
2018-10-18T11:48:42.823Z,1424.00
2018-10-18T11:49:42.812Z,1308.00
2018-10-18T11:50:42.809Z,1272.00
2018-10-18T11:51:42.912Z,1272.00
2018-10-18T11:52:42.790Z,1316.00
2018-10-18T11:53:42.785Z,1300.00
2018-10-18T11:54:42.776Z,1252.00
2018-10-18T11:55:42.766Z,1328.00
2018-10-18T11:56:42.764Z,1372.00
2018-10-18T11:57:42.763Z,1312.00
2018-10-18T11:58:42.748Z,1344.00
2018-10-18T11:59:42.739Z,1328.00
2018-10-18T12:00:42.728Z,1276.00
2018-10-18T12:01:42.718Z,1316.00
2018-10-18T12:02:42.894Z,1284.00
2018-10-18T12:03:42.706Z,1244.00
2018-10-18T12:04:42.698Z,1256.00
2018-10-18T12:05:42.688Z,1248.00
2018-10-18T12:06:42.679Z,1220.00
2018-10-18T12:07:42.667Z,1288.00
2018-10-18T12:08:42.667Z,1252.00
2018-10-18T12:09:42.658Z,1244.00
2018-10-18T12:10:42.655Z,1260.00
2018-10-18T12:11:42.644Z,1244.00
2018-10-18T12:12:42.637Z,1256.00
2018-10-18T12:13:42.627Z,1296.00
2018-10-18T12:14:42.636Z,1220.00
2018-10-18T12:15:42.614Z,1208.00
2018-10-18T12:16:42.597Z,1088.00
2018-10-18T12:17:42.597Z,1008.00
2018-10-18T12:18:42.588Z,968.00
2018-10-18T12:19:42.583Z,992.00
2018-10-18T12:20:42.583Z,1072.00
2018-10-18T12:21:42.571Z,1120.00
2018-10-18T12:22:42.557Z,1140.00
2018-10-18T12:23:42.546Z,1168.00
2018-10-18T12:24:42.544Z,1184.00
2018-10-18T12:25:42.533Z,1156.00
2018-10-18T12:26:42.551Z,1156.00
2018-10-18T12:27:42.523Z,1168.00
2018-10-18T12:28:42.510Z,1128.00
2018-10-18T12:29:42.504Z,1236.00
2018-10-18T12:30:42.497Z,1348.00
2018-10-18T12:31:42.486Z,1360.00
2018-10-18T12:32:42.479Z,1380.00
2018-10-18T12:33:42.467Z,1484.00
2018-10-18T12:34:42.462Z,1476.00
2018-10-18T12:35:42.451Z,1548.00
2018-10-18T12:36:42.446Z,1524.00
2018-10-18T12:37:42.435Z,1632.00
2018-10-18T12:38:42.436Z,1668.00
2018-10-18T12:39:42.519Z,1596.00
2018-10-18T12:40:42.469Z,1588.00
2018-10-18T12:41:42.486Z,1468.00
2018-10-18T12:42:42.396Z,1384.00
2018-10-18T12:43:42.389Z,1416.00
2018-10-18T12:44:42.390Z,1340.00